Time;durP1;ratioP1;P1;durP2;ratioP2;P2;SDS_P1;SDS_P2;PMS_P1;PMS_P2;Temp;Humidity;BMP_temperature;BMP_pressure;BME280_temperature;BME280_humidity;BME280_pressure;Samples;Min_cycle;Max_cycle;Signal;HPM_P1;HPM_P2
2022/03/22 00:01:24;;;;;;;28.25;13.65;;;4.20;64.80;;;;;;5112940;28;20046;-64
2022/03/22 00:04:29;;;;;;;28.48;13.90;;;4.20;64.90;;;;;;5112916;28;20054;-65
2022/03/22 00:07:34;;;;;;;26.70;11.80;;;4.10;64.90;;;;;;5112362;28;20042;-65
2022/03/22 00:10:38;;;;;;;23.83;12.20;;;4.00;66.80;;;;;;5112949;28;20051;-65
2022/03/22 00:13:45;;;;;;;20.25;10.18;;;3.90;65.40;;;;;;5112956;28;20055;-65
2022/03/22 00:16:49;;;;;;;19.65;10.38;;;3.90;67.30;;;;;;5112367;28;20050;-65
2022/03/22 00:19:53;;;;;;;18.27;10.25;;;3.80;66.40;;;;;;5112565;28;20050;-65
2022/03/22 00:22:58;;;;;;;18.90;10.50;;;3.80;66.90;;;;;;5112661;28;20046;-64
2022/03/22 00:26:03;;;;;;;21.70;11.02;;;3.70;66.50;;;;;;5111628;28;20057;-66
2022/03/22 00:29:07;;;;;;;19.73;11.77;;;3.80;66.80;;;;;;5112598;28;20042;-63
2022/03/22 00:32:12;;;;;;;24.73;14.05;;;4.00;66.50;;;;;;5112311;28;20051;-65
2022/03/22 00:35:18;;;;;;;26.83;12.30;;;4.00;66.60;;;;;;5112468;28;20054;-64
2022/03/22 00:38:23;;;;;;;24.30;12.40;;;4.10;66.90;;;;;;5112393;28;20043;-65
2022/03/22 00:41:27;;;;;;;25.15;12.52;;;4.10;67.00;;;;;;5111850;28;20053;-65
2022/03/22 00:44:30;;;;;;;21.63;12.95;;;4.10;67.50;;;;;;5112310;28;20034;-65
2022/03/22 00:47:35;;;;;;;21.63;11.32;;;3.90;68.00;;;;;;5111913;28;20050;-64
2022/03/22 00:50:41;;;;;;;23.55;12.88;;;3.80;67.20;;;;;;5112061;28;20588;-64
2022/03/22 00:53:47;;;;;;;23.27;12.30;;;4.00;67.30;;;;;;5111605;28;20043;-64
2022/03/22 00:56:53;;;;;;;19.73;11.88;;;3.90;67.50;;;;;;5111349;28;20050;-65
2022/03/22 01:00:06;;;;;;;22.52;12.48;;;3.70;69.30;;;;;;5111483;28;20063;-64
2022/03/22 01:03:11;;;;;;;25.27;12.27;;;3.40;70.00;;;;;;5111731;28;20043;-65
2022/03/22 01:06:15;;;;;;;26.13;12.75;;;3.10;70.90;;;;;;5111204;28;20054;-65
2022/03/22 01:09:19;;;;;;;23.00;11.23;;;3.10;71.10;;;;;;5110475;28;20062;-64
2022/03/22 01:12:23;;;;;;;19.92;11.48;;;3.20;70.20;;;;;;5111531;28;20358;-65
2022/03/22 01:15:33;;;;;;;23.20;11.90;;;3.30;70.10;;;;;;5111361;28;20038;-65
2022/03/22 01:18:38;;;;;;;23.15;12.95;;;3.50;69.40;;;;;;5111237;28;20038;-65
2022/03/22 01:21:42;;;;;;;21.67;12.20;;;3.60;69.20;;;;;;5111294;28;20042;-64
2022/03/22 01:24:47;;;;;;;21.63;12.15;;;3.50;70.80;;;;;;5110826;28;20046;-65
2022/03/22 01:27:52;;;;;;;20.23;10.85;;;3.30;70.50;;;;;;5110846;28;20500;-65
2022/03/22 01:30:56;;;;;;;19.63;10.48;;;3.30;70.10;;;;;;5110317;28;20046;-65
2022/03/22 01:34:00;;;;;;;20.25;10.63;;;3.30;69.60;;;;;;5110217;28;20062;-64
2022/03/22 01:37:05;;;;;;;21.58;12.10;;;3.30;69.60;;;;;;5110447;28;20402;-65
2022/03/22 01:40:10;;;;;;;18.80;10.68;;;3.30;69.90;;;;;;5111150;28;20074;-66
2022/03/22 01:43:14;;;;;;;25.00;11.50;;;3.20;70.80;;;;;;5110946;28;20385;-65
2022/03/22 01:46:24;;;;;;;23.70;11.57;;;2.70;73.00;;;;;;5110282;28;20050;-65
2022/03/22 01:49:28;;;;;;;22.27;11.23;;;2.40;74.30;;;;;;5111030;28;20058;-65
2022/03/22 01:52:34;;;;;;;21.40;12.05;;;2.30;74.70;;;;;;5110088;28;20051;-64
2022/03/22 01:55:39;;;;;;;32.38;12.70;;;2.20;74.90;;;;;;5111089;28;20054;-65
2022/03/22 01:58:43;;;;;;;24.77;11.82;;;2.20;75.10;;;;;;5110801;28;20050;-64
2022/03/22 02:08:37;;;;;;;22.15;11.23;;;2.40;73.80;;;;;;5110208;28;20386;-64
2022/03/22 02:11:42;;;;;;;20.42;10.52;;;2.40;74.20;;;;;;5110692;28;20054;-65
2022/03/22 02:14:46;;;;;;;19.80;10.45;;;2.30;74.50;;;;;;5110250;28;20052;-65
2022/03/22 02:17:51;;;;;;;20.75;11.32;;;2.30;74.20;;;;;;5109986;28;20418;-64
2022/03/22 02:20:56;;;;;;;21.40;12.00;;;2.30;74.60;;;;;;5110351;28;20035;-64
2022/03/22 02:24:00;;;;;;;23.80;10.70;;;2.40;73.80;;;;;;5110563;28;20058;-65
2022/03/22 02:27:06;;;;;;;18.98;9.77;;;2.40;73.70;;;;;;5109855;28;20526;-65
2022/03/22 02:30:15;;;;;;;13.18;7.82;;;2.60;71.50;;;;;;5110505;28;20067;-65
2022/03/22 02:33:19;;;;;;;14.70;7.68;;;2.80;71.90;;;;;;5110364;28;20054;-64
2022/03/22 02:36:23;;;;;;;19.55;8.25;;;2.80;70.80;;;;;;5109891;28;20047;-64
2022/03/22 02:39:27;;;;;;;13.95;7.93;;;2.70;71.50;;;;;;5110566;28;20046;-65
2022/03/22 02:42:32;;;;;;;19.80;8.85;;;2.80;71.90;;;;;;5110102;28;20386;-65
2022/03/22 02:45:36;;;;;;;19.83;8.40;;;2.60;71.70;;;;;;5108816;28;20043;-65
2022/03/22 02:48:41;;;;;;;18.48;9.15;;;2.70;70.80;;;;;;5109892;28;20055;-65
2022/03/22 02:51:46;;;;;;;19.27;8.48;;;2.70;71.80;;;;;;5110072;28;20438;-65
2022/03/22 02:54:50;;;;;;;19.50;11.13;;;2.70;72.20;;;;;;5109993;28;20047;-65
2022/03/22 02:57:54;;;;;;;23.35;10.73;;;2.80;73.30;;;;;;5109106;28;20587;-65
2022/03/22 03:00:58;;;;;;;18.30;10.02;;;2.80;73.30;;;;;;5110035;28;20050;-65
2022/03/22 03:04:03;;;;;;;19.50;11.25;;;2.70;73.60;;;;;;5111406;28;20039;-65
2022/03/22 03:07:07;;;;;;;16.77;9.20;;;2.60;74.50;;;;;;5112846;28;20067;-65
2022/03/22 03:10:11;;;;;;;15.48;9.27;;;2.50;73.90;;;;;;5113555;28;20050;-65
2022/03/22 03:13:15;;;;;;;20.48;10.57;;;2.50;74.50;;;;;;5113421;28;20042;-65
2022/03/22 03:16:19;;;;;;;16.08;9.15;;;2.40;74.20;;;;;;5113243;28;20050;-64
2022/03/22 03:19:23;;;;;;;15.15;9.23;;;2.40;74.50;;;;;;5113490;28;20042;-65
2022/03/22 03:22:27;;;;;;;18.73;9.32;;;2.40;74.80;;;;;;5113410;28;20405;-64
2022/03/22 03:25:31;;;;;;;17.73;9.00;;;2.30;75.20;;;;;;5112341;28;20050;-65
2022/03/22 03:28:35;;;;;;;15.23;8.65;;;2.20;74.80;;;;;;5113317;28;20047;-65
2022/03/22 03:31:40;;;;;;;14.38;8.82;;;2.20;74.20;;;;;;5113485;28;20051;-65
2022/03/22 03:34:44;;;;;;;12.00;7.15;;;2.20;74.70;;;;;;5113112;28;20043;-65
2022/03/22 03:37:47;;;;;;;17.88;6.28;;;2.20;74.10;;;;;;5112232;28;20034;-65
2022/03/22 03:47:36;;;;;;;;;;;2.40;72.40;;;;;;5113116;28;20382;-64
2022/03/22 03:50:40;;;;;;;13.73;7.13;;;2.30;72.80;;;;;;5113061;28;19934;-65
2022/03/22 03:53:44;;;;;;;13.07;7.43;;;2.30;72.60;;;;;;5112669;28;20042;-65
2022/03/22 03:56:48;;;;;;;15.20;6.45;;;2.30;71.90;;;;;;5112107;28;20062;-65
2022/03/22 03:59:53;;;;;;;10.18;6.07;;;2.40;72.00;;;;;;5111811;28;20042;-65
2022/03/22 04:02:58;;;;;;;11.85;6.40;;;2.40;71.80;;;;;;5112804;28;20039;-64
2022/03/22 04:06:02;;;;;;;13.05;6.32;;;2.40;71.80;;;;;;5112233;28;20030;-64
2022/03/22 04:09:06;;;;;;;10.18;6.20;;;2.40;71.60;;;;;;5112198;28;20042;-65
2022/03/22 04:12:12;;;;;;;13.15;6.47;;;2.40;71.30;;;;;;5112299;28;20500;-65
2022/03/22 04:15:16;;;;;;;11.52;5.90;;;2.50;70.80;;;;;;5111439;28;20046;-65
2022/03/22 04:18:19;;;;;;;9.43;5.80;;;2.50;70.10;;;;;;5111584;28;20042;-65
2022/03/22 04:21:24;;;;;;;12.20;6.57;;;2.50;71.80;;;;;;5112450;28;20035;-64
2022/03/22 04:24:29;;;;;;;12.02;7.55;;;2.40;72.20;;;;;;5112206;28;20387;-65
2022/03/22 04:34:19;;;;;;;20.35;11.13;;;1.40;78.80;;;;;;5112256;28;19919;-65
2022/03/22 04:37:24;;;;;;;21.58;11.60;;;1.20;80.10;;;;;;5111743;28;20054;-65
2022/03/22 04:40:28;;;;;;;26.33;10.32;;;1.10;81.70;;;;;;5111999;28;20050;-65
2022/03/22 04:43:33;;;;;;;18.83;11.60;;;1.00;82.40;;;;;;5111205;28;20489;-64
2022/03/22 04:46:37;;;;;;;18.73;9.75;;;0.90;83.30;;;;;;5111665;28;20027;-65
2022/03/22 04:49:41;;;;;;;20.80;9.70;;;0.90;83.10;;;;;;5111890;28;20047;-64
2022/03/22 04:59:32;;;;;;;16.55;9.75;;;0.60;84.30;;;;;;5111426;28;20410;-65
2022/03/22 05:02:36;;;;;;;23.20;11.38;;;0.40;86.20;;;;;;5111419;28;20066;-65
2022/03/22 05:09:07;;;;;;;21.00;10.73;;;0.30;88.80;;;;;;5111043;28;20042;-65
2022/03/22 05:12:13;;;;;;;20.92;10.82;;;0.40;88.80;;;;;;5110617;28;20039;-64
2022/03/22 05:15:17;;;;;;;22.15;10.13;;;0.40;88.40;;;;;;5111096;28;20042;-64
2022/03/22 05:18:21;;;;;;;25.15;11.18;;;0.50;88.20;;;;;;5110454;28;20038;-64
2022/03/22 05:21:26;;;;;;;21.15;10.05;;;0.50;87.60;;;;;;5110739;28;20054;-65
2022/03/22 05:24:30;;;;;;;19.95;11.15;;;0.50;87.90;;;;;;5110956;28;20042;-65
2022/03/22 05:27:35;;;;;;;17.00;9.95;;;0.50;87.80;;;;;;5110340;28;20042;-64
2022/03/22 05:30:40;;;;;;;19.48;9.73;;;0.50;87.90;;;;;;5110460;28;20047;-65
2022/03/22 05:33:44;;;;;;;15.35;8.80;;;0.70;87.30;;;;;;5111007;28;20062;-65
2022/03/22 05:36:49;;;;;;;19.63;10.38;;;0.80;87.20;;;;;;5110418;28;20050;-65
2022/03/22 05:39:53;;;;;;;17.83;10.70;;;0.90;86.30;;;;;;5110546;28;20043;-65
2022/03/22 05:42:57;;;;;;;23.33;11.10;;;1.00;85.90;;;;;;5111004;28;20046;-65
2022/03/22 05:46:02;;;;;;;23.75;11.23;;;1.10;85.80;;;;;;5109390;28;20027;-65
2022/03/22 05:49:11;;;;;;;39.60;12.95;;;1.30;85.00;;;;;;5110867;28;20055;-65
2022/03/22 05:52:15;;;;;;;22.50;11.02;;;1.50;84.60;;;;;;5110676;28;20043;-64
2022/03/22 05:55:19;;;;;;;20.65;11.85;;;1.60;84.40;;;;;;5110659;28;20497;-65
2022/03/22 05:58:24;;;;;;;21.23;11.25;;;1.80;83.70;;;;;;5110248;28;20042;-65
2022/03/22 06:01:28;;;;;;;22.38;11.68;;;2.70;84.00;;;;;;5110631;28;20050;-65
2022/03/22 06:04:32;;;;;;;20.33;11.45;;;2.80;84.60;;;;;;5110607;28;20038;-65
2022/03/22 06:07:41;;;;;;;20.15;11.95;;;5.50;75.50;;;;;;5109517;28;20390;-65
2022/03/22 06:10:45;;;;;;;28.13;16.42;;;8.40;72.30;;;;;;5110362;28;20047;-65
2022/03/22 06:13:49;;;;;;;20.92;12.35;;;8.00;66.60;;;;;;5110519;28;20054;-65
2022/03/22 06:16:53;;;;;;;20.73;12.90;;;10.80;64.60;;;;;;5109598;28;20047;-65
2022/03/22 06:19:56;;;;;;;18.10;11.52;;;13.30;62.20;;;;;;5110945;28;20047;-66
2022/03/22 06:23:05;;;;;;;18.48;10.77;;;15.20;57.80;;;;;;5111075;28;20039;-65
2022/03/22 06:26:09;;;;;;;18.77;10.98;;;16.40;56.60;;;;;;5108994;28;20505;-66
2022/03/22 06:29:13;;;;;;;15.75;9.93;;;17.60;53.00;;;;;;5110218;28;20054;-66
2022/03/22 06:32:17;;;;;;;15.13;10.05;;;17.60;52.70;;;;;;5110220;28;20062;-66
2022/03/22 06:35:28;;;;;;;16.42;10.25;;;18.10;52.30;;;;;;5111359;28;20389;-66
2022/03/22 06:38:32;;;;;;;15.27;9.50;;;18.70;51.50;;;;;;5111358;28;20600;-66
2022/03/22 06:41:36;;;;;;;14.90;8.68;;;18.80;50.30;;;;;;5114381;28;20039;-66
2022/03/22 06:44:40;;;;;;;15.18;9.38;;;19.20;49.60;;;;;;5114363;28;20038;-66
2022/03/22 06:47:46;;;;;;;19.35;9.52;;;19.70;48.60;;;;;;5113871;28;20378;-66
2022/03/22 06:50:51;;;;;;;18.85;9.40;;;19.10;48.20;;;;;;5114430;28;20207;-66
2022/03/22 06:53:55;;;;;;;18.65;9.35;;;19.80;49.40;;;;;;5114155;28;20398;-66
2022/03/22 06:56:59;;;;;;;12.32;8.75;;;20.80;48.00;;;;;;5113806;28;20046;-66
2022/03/22 07:00:08;;;;;;;19.70;8.57;;;20.10;47.50;;;;;;5110926;28;20043;-67
2022/03/22 07:03:12;;;;;;;15.77;9.45;;;20.80;47.60;;;;;;5109356;28;20030;-66
2022/03/22 07:06:16;;;;;;;12.75;8.80;;;20.10;46.80;;;;;;5112378;28;20405;-66
2022/03/22 07:09:22;;;;;;;14.25;9.00;;;20.90;47.00;;;;;;5105944;28;20047;-66
2022/03/22 07:12:26;;;;;;;17.13;8.50;;;21.50;45.90;;;;;;5106358;28;20047;-64
2022/03/22 07:15:37;;;;;;;10.50;7.55;;;21.60;46.00;;;;;;5112659;28;20042;-65
2022/03/22 07:18:42;;;;;;;10.57;7.40;;;21.50;45.50;;;;;;5104120;28;20406;-64
2022/03/22 07:21:48;;;;;;;14.88;9.25;;;21.70;44.80;;;;;;5110935;28;20386;-64
2022/03/22 07:24:53;;;;;;;12.15;8.45;;;18.10;46.30;;;;;;5105760;28;20963;-66
2022/03/22 07:27:57;;;;;;;14.25;8.38;;;19.20;47.20;;;;;;5098957;28;20047;-66
2022/03/22 07:31:02;;;;;;;15.20;9.65;;;18.00;48.00;;;;;;5112440;28;20065;-64
2022/03/22 07:34:15;;;;;;;12.23;7.20;;;18.70;47.00;;;;;;5101501;28;20521;-64
2022/03/22 07:37:20;;;;;;;15.73;8.23;;;20.30;45.50;;;;;;5104648;28;20506;-64
2022/03/22 07:40:24;;;;;;;9.52;7.78;;;21.30;45.10;;;;;;5110690;28;20051;-64
2022/03/22 07:43:29;;;;;;;14.85;8.45;;;22.00;44.60;;;;;;5105882;28;20039;-65
2022/03/22 07:46:34;;;;;;;15.75;8.80;;;23.10;43.70;;;;;;5109386;28;20046;-65
2022/03/22 07:53:06;;;;;;;11.63;8.55;;;16.80;51.50;;;;;;5104570;28;20544;-64
2022/03/22 07:56:13;;;;;;;13.50;9.40;;;17.10;48.10;;;;;;5101681;28;20030;-64
2022/03/22 07:59:17;;;;;;;11.73;8.20;;;15.60;51.10;;;;;;5110016;28;20418;-65
2022/03/22 08:02:21;;;;;;;10.60;8.27;;;18.00;49.60;;;;;;5104085;28;20039;-65
2022/03/22 08:05:26;;;;;;;12.30;8.85;;;18.40;48.10;;;;;;5105362;28;20038;-66
2022/03/22 08:08:30;;;;;;;12.02;9.30;;;17.80;49.80;;;;;;5094481;28;20051;-66
2022/03/22 08:11:34;;;;;;;14.77;9.40;;;16.10;50.60;;;;;;5102520;28;20046;-67
2022/03/22 08:14:39;;;;;;;14.55;9.70;;;16.80;51.50;;;;;;5105199;28;20050;-67
2022/03/22 08:17:44;;;;;;;13.82;9.88;;;18.10;50.30;;;;;;5107577;28;20504;-66
2022/03/22 08:20:48;;;;;;;14.23;8.80;;;16.90;50.90;;;;;;5106660;28;20051;-67
2022/03/22 08:23:53;;;;;;;12.15;7.57;;;17.50;51.10;;;;;;5108749;28;20046;-64
2022/03/22 08:26:57;;;;;;;12.23;8.18;;;21.20;48.00;;;;;;5101139;28;20114;-64
2022/03/22 08:30:02;;;;;;;13.43;8.38;;;19.80;45.40;;;;;;5109371;28;20070;-65
2022/03/22 08:33:09;;;;;;;10.07;8.20;;;18.70;48.80;;;;;;5107798;28;20390;-64
2022/03/22 08:36:13;;;;;;;13.75;8.68;;;20.20;47.70;;;;;;5103732;28;20055;-66
2022/03/22 08:39:17;;;;;;;11.13;8.30;;;20.00;47.40;;;;;;5107373;28;20662;-66
2022/03/22 08:42:21;;;;;;;17.05;8.90;;;20.40;48.10;;;;;;5105955;28;20046;-64
2022/03/22 08:45:27;;;;;;;12.05;8.85;;;20.50;47.60;;;;;;5109697;28;20051;-64
2022/03/22 08:48:31;;;;;;;15.75;8.95;;;22.40;46.70;;;;;;5110231;28;20414;-65
2022/03/22 08:51:35;;;;;;;12.27;8.65;;;21.60;45.80;;;;;;5107371;28;20047;-66
2022/03/22 08:54:39;;;;;;;14.18;8.05;;;21.10;44.90;;;;;;5100782;28;20051;-67
2022/03/22 08:57:46;;;;;;;11.32;8.57;;;23.20;44.90;;;;;;5101137;28;20069;-66
2022/03/22 09:00:50;;;;;;;9.60;7.35;;;24.70;43.00;;;;;;5105587;28;20038;-64
2022/03/22 09:07:18;;;;;;;12.73;7.68;;;26.20;42.50;;;;;;5104758;28;20636;-64
2022/03/22 09:10:22;;;;;;;12.90;7.65;;;22.60;43.30;;;;;;5103284;28;20043;-64
2022/03/22 09:13:29;;;;;;;15.05;8.10;;;20.70;45.60;;;;;;5095337;28;20039;-64
2022/03/22 09:16:33;;;;;;;9.27;7.13;;;22.10;43.90;;;;;;5098973;28;20113;-64
2022/03/22 09:19:37;;;;;;;13.85;8.00;;;21.40;44.30;;;;;;5104887;28;20046;-64
2022/03/22 09:22:43;;;;;;;17.15;7.18;;;23.20;42.80;;;;;;5108825;28;20038;-64
2022/03/22 09:25:48;;;;;;;11.75;7.03;;;24.70;42.40;;;;;;5100043;28;20078;-64
2022/03/22 09:28:53;;;;;;;8.38;6.90;;;27.40;41.60;;;;;;5108754;28;20038;-64
2022/03/22 09:31:57;;;;;;;9.70;7.20;;;25.40;38.70;;;;;;5102499;28;20386;-64
2022/03/22 09:35:04;;;;;;;11.45;7.05;;;26.70;40.30;;;;;;5103721;28;20484;-64
2022/03/22 09:38:08;;;;;;;10.65;7.18;;;24.50;40.00;;;;;;5102589;28;20046;-66
2022/03/22 09:41:14;;;;;;;8.07;6.70;;;25.30;39.80;;;;;;5099749;28;20425;-64
2022/03/22 09:44:18;;;;;;;7.65;6.22;;;26.50;38.50;;;;;;5102239;28;20042;-64
2022/03/22 09:47:23;;;;;;;10.85;6.43;;;28.60;38.60;;;;;;5103943;28;20050;-65
2022/03/22 09:53:53;;;;;;;10.57;6.32;;;29.00;36.10;;;;;;5105626;28;20038;-65
2022/03/22 09:56:57;;;;;;;12.40;6.80;;;27.10;37.10;;;;;;5100970;28;20051;-64
2022/03/22 10:00:04;;;;;;;9.48;6.45;;;25.90;37.50;;;;;;5103796;28;20046;-64
2022/03/22 10:03:20;;;;;;;9.73;6.13;;;23.60;38.70;;;;;;5102230;28;20047;-64
2022/03/22 10:06:24;;;;;;;9.40;6.30;;;27.40;38.00;;;;;;5102772;28;20039;-64
2022/03/22 10:09:33;;;;;;;7.32;5.57;;;29.60;38.20;;;;;;5104592;28;20653;-64
2022/03/22 10:12:38;;;;;;;9.63;5.68;;;31.40;36.70;;;;;;5102726;28;20055;-64
2022/03/22 10:15:42;;;;;;;8.48;5.85;;;30.30;37.30;;;;;;5100402;28;20039;-65
2022/03/22 10:18:46;;;;;;;16.45;5.53;;;31.50;36.10;;;;;;5109632;28;20046;-65
2022/03/22 10:21:53;;;;;;;7.32;5.30;;;32.00;35.50;;;;;;5108227;28;20046;-65
2022/03/22 10:25:00;;;;;;;12.68;5.00;;;33.80;35.10;;;;;;5101290;28;20043;-64
2022/03/22 10:28:06;;;;;;;9.70;5.28;;;34.10;34.60;;;;;;5105014;28;20391;-64
2022/03/22 10:31:10;;;;;;;6.75;5.10;;;30.50;35.70;;;;;;5112567;28;20054;-64
2022/03/22 10:34:16;;;;;;;7.22;5.85;;;30.50;35.60;;;;;;5108285;28;20485;-64
2022/03/22 10:37:27;;;;;;;8.63;5.97;;;24.20;34.20;;;;;;5106716;28;20047;-64
2022/03/22 10:40:44;;;;;;;9.07;6.30;;;23.60;37.50;;;;;;5105642;28;20043;-64
2022/03/22 10:43:48;;;;;;;10.63;6.28;;;27.80;36.40;;;;;;5107676;28;20043;-64
2022/03/22 10:46:52;;;;;;;7.80;5.60;;;28.90;37.00;;;;;;5110072;28;20046;-65
2022/03/22 10:50:05;;;;;;;7.45;5.80;;;30.10;37.00;;;;;;5105606;28;20043;-64
2022/03/22 10:53:17;;;;;;;7.47;5.10;;;29.00;34.60;;;;;;5107408;28;20042;-63
2022/03/22 10:56:21;;;;;;;8.43;6.82;;;29.70;35.20;;;;;;5104268;28;20050;-64
2022/03/22 10:59:27;;;;;;;7.35;5.50;;;32.50;34.80;;;;;;5106759;28;20058;-64
2022/03/22 11:02:37;;;;;;;9.07;6.20;;;34.30;35.60;;;;;;5108095;28;20531;-64
2022/03/22 11:05:45;;;;;;;8.40;5.80;;;35.20;34.10;;;;;;5113324;28;20599;-64
2022/03/22 11:08:49;;;;;;;8.63;6.15;;;27.70;35.00;;;;;;5109901;28;20043;-64
2022/03/22 11:11:54;;;;;;;10.70;6.43;;;23.70;36.60;;;;;;5103242;28;20042;-63
2022/03/22 11:15:00;;;;;;;8.48;6.20;;;27.40;36.40;;;;;;5105109;28;20039;-63
2022/03/22 11:18:07;;;;;;;7.53;5.82;;;29.30;36.40;;;;;;5108920;28;20916;-64
2022/03/22 11:21:17;;;;;;;11.52;6.25;;;26.30;35.50;;;;;;5102243;28;20058;-65
2022/03/22 11:24:25;;;;;;;13.98;5.20;;;28.50;37.20;;;;;;5103959;28;20046;-65
2022/03/22 11:27:29;;;;;;;13.43;6.03;;;31.00;36.70;;;;;;5102781;28;20046;-65
2022/03/22 11:30:36;;;;;;;7.50;5.57;;;32.60;35.70;;;;;;5105011;28;20295;-65
2022/03/22 11:37:04;;;;;;;5.63;5.07;;;34.60;33.80;;;;;;5101303;28;20051;-65
2022/03/22 11:43:43;;;;;;;9.45;5.03;;;33.70;33.80;;;;;;5111323;28;20059;-65
2022/03/22 11:47:08;;;;;;;6.55;5.47;;;34.90;34.10;;;;;;5108104;28;20386;-65
2022/03/22 11:50:16;;;;;;;8.00;5.32;;;36.20;33.60;;;;;;5102790;28;20050;-65
2022/03/22 11:53:20;;;;;;;7.38;5.18;;;35.70;33.70;;;;;;5108387;28;20491;-65
2022/03/22 11:56:28;;;;;;;7.85;5.50;;;36.20;33.70;;;;;;5104635;28;20050;-64
2022/03/22 11:59:42;;;;;;;9.02;6.32;;;25.90;35.20;;;;;;5105260;28;20492;-64
2022/03/22 12:02:53;;;;;;;12.15;6.00;;;23.00;36.80;;;;;;5101808;28;20043;-64
2022/03/22 12:06:11;;;;;;;7.80;6.57;;;26.30;38.40;;;;;;5106929;28;20051;-64
2022/03/22 12:09:16;;;;;;;20.92;6.65;;;25.80;36.60;;;;;;5097219;28;20039;-64
2022/03/22 12:12:20;;;;;;;11.30;6.20;;;26.60;35.90;;;;;;5101239;28;20509;-64
2022/03/22 12:15:24;;;;;;;9.40;6.25;;;25.30;34.80;;;;;;5102312;28;20043;-63
2022/03/22 12:18:30;;;;;;;8.25;6.68;;;23.80;38.80;;;;;;5102503;28;20054;-63
2022/03/22 12:21:35;;;;;;;8.80;6.47;;;25.30;35.70;;;;;;5107630;28;20042;-64
2022/03/22 12:24:39;;;;;;;8.55;6.40;;;25.10;39.30;;;;;;5105094;28;20047;-65
2022/03/22 12:28:09;;;;;;;9.70;6.57;;;28.60;37.40;;;;;;5098984;28;20098;-65
2022/03/22 12:31:13;;;;;;;7.13;6.10;;;29.10;35.00;;;;;;5109173;28;20110;-65
2022/03/22 12:34:18;;;;;;;7.07;5.82;;;31.50;35.50;;;;;;5111671;28;20055;-65
2022/03/22 12:37:22;;;;;;;10.43;6.07;;;31.40;34.60;;;;;;5096618;28;20043;-64
2022/03/22 12:40:27;;;;;;;10.20;6.13;;;27.40;35.80;;;;;;5102321;28;20043;-64
2022/03/22 12:43:32;;;;;;;12.35;5.57;;;27.60;35.60;;;;;;5099567;28;20055;-64
2022/03/22 12:46:36;;;;;;;9.80;6.40;;;26.80;35.90;;;;;;5108405;28;20047;-64
2022/03/22 12:49:42;;;;;;;8.43;6.20;;;27.50;35.80;;;;;;5107687;28;20047;-64
2022/03/22 12:52:47;;;;;;;8.00;6.28;;;26.10;36.40;;;;;;5107381;28;20039;-64
2022/03/22 12:55:51;;;;;;;14.18;6.45;;;27.40;35.90;;;;;;5101175;28;20039;-64
2022/03/22 12:58:56;;;;;;;11.00;6.40;;;29.00;36.60;;;;;;5101701;28;20046;-65
2022/03/22 13:02:00;;;;;;;7.72;5.75;;;31.80;36.80;;;;;;5109594;28;20046;-65
2022/03/22 13:05:06;;;;;;;9.05;5.88;;;33.60;35.10;;;;;;5108189;28;20058;-64
2022/03/22 13:08:19;;;;;;;6.60;5.45;;;33.90;35.00;;;;;;5099925;28;20394;-64
2022/03/22 13:11:26;;;;;;;9.07;5.88;;;34.10;33.90;;;;;;5107007;28;20035;-64
2022/03/22 13:17:53;;;;;;;7.55;6.13;;;30.60;35.20;;;;;;5109509;28;20042;-64
2022/03/22 13:21:01;;;;;;;10.27;6.68;;;30.10;36.50;;;;;;5103811;28;20027;-64
2022/03/22 13:24:17;;;;;;;8.52;6.38;;;28.10;35.60;;;;;;5105107;28;20031;-64
2022/03/22 13:27:24;;;;;;;9.50;6.10;;;25.70;36.90;;;;;;5098324;28;20046;-65
2022/03/22 13:30:30;;;;;;;8.80;6.10;;;28.10;36.60;;;;;;5102945;28;20370;-64
2022/03/22 13:33:38;;;;;;;7.50;5.78;;;29.80;36.40;;;;;;5103494;28;20050;-64
2022/03/22 13:36:44;;;;;;;10.32;6.35;;;30.00;36.30;;;;;;5096884;28;20135;-64
2022/03/22 13:39:51;;;;;;;12.30;6.95;;;26.10;35.50;;;;;;5111650;28;20058;-62
2022/03/22 13:43:07;;;;;;;9.27;6.50;;;23.80;38.60;;;;;;5097786;28;20406;-64
2022/03/22 13:46:12;;;;;;;10.73;7.38;;;25.60;37.70;;;;;;5099634;28;20414;-66
2022/03/22 13:49:17;;;;;;;8.70;6.80;;;25.40;36.60;;;;;;5092339;28;20059;-63
2022/03/22 13:52:28;;;;;;;10.82;6.90;;;26.50;36.80;;;;;;5100613;28;20058;-65
2022/03/22 13:55:36;;;;;;;28.35;7.43;;;26.10;38.60;;;;;;5103534;28;20039;-63
2022/03/22 13:58:47;;;;;;;19.45;7.90;;;26.60;37.20;;;;;;5103022;28;20378;-65
2022/03/22 14:01:52;;;;;;;12.75;7.70;;;25.50;38.70;;;;;;5100526;28;20065;-66
2022/03/22 14:04:56;;;;;;;12.18;7.50;;;24.90;37.40;;;;;;5102016;28;20417;-65
2022/03/22 14:08:00;;;;;;;9.30;7.20;;;21.30;39.40;;;;;;5098254;28;20031;-66
2022/03/22 14:11:06;;;;;;;9.07;7.10;;;23.40;39.00;;;;;;5105230;28;20039;-65
2022/03/22 14:14:10;;;;;;;11.38;7.78;;;21.10;39.10;;;;;;5102986;28;20054;-64
2022/03/22 14:17:15;;;;;;;12.80;8.02;;;19.90;41.90;;;;;;5106406;28;20043;-65
2022/03/22 14:20:21;;;;;;;11.32;7.50;;;21.70;40.70;;;;;;5108870;28;20047;-65
2022/03/22 14:23:26;;;;;;;10.45;7.32;;;24.30;41.30;;;;;;5101812;28;20382;-65
2022/03/22 14:26:30;;;;;;;12.48;7.57;;;25.50;38.80;;;;;;5106293;28;20035;-65
2022/03/22 14:29:33;;;;;;;12.02;7.97;;;24.20;38.40;;;;;;5102579;28;20050;-65
2022/03/22 14:32:37;;;;;;;10.40;6.90;;;23.70;40.60;;;;;;5109910;28;20043;-65
2022/03/22 14:35:49;;;;;;;8.85;7.28;;;24.20;39.90;;;;;;5092434;28;20489;-65
2022/03/22 14:38:53;;;;;;;10.05;6.63;;;24.30;39.30;;;;;;5105112;28;20047;-66
2022/03/22 14:41:57;;;;;;;14.52;7.28;;;24.20;41.00;;;;;;5103782;28;20501;-73
2022/03/22 14:45:07;;;;;;;13.30;8.48;;;21.80;42.60;;;;;;5101826;28;20046;-75
2022/03/22 14:48:11;;;;;;;13.40;8.25;;;20.00;43.90;;;;;;5089383;28;20056;-73
2022/03/22 14:54:43;;;;;;;12.93;8.02;;;18.80;45.70;;;;;;5105105;28;20043;-73
2022/03/22 15:01:09;;;;;;;14.20;8.52;;;18.60;46.50;;;;;;5103906;28;20063;-73
2022/03/22 15:04:15;;;;;;;12.43;8.20;;;18.50;47.80;;;;;;5110245;28;20046;-73
2022/03/22 15:07:23;;;;;;;13.45;8.38;;;18.20;47.80;;;;;;5111684;28;20374;-73
2022/03/22 15:10:28;;;;;;;15.45;8.57;;;18.50;47.00;;;;;;5099352;28;20059;-73
2022/03/22 15:13:33;;;;;;;12.73;7.85;;;18.30;45.80;;;;;;5109045;28;20051;-73
2022/03/22 15:16:37;;;;;;;14.13;8.40;;;18.50;47.30;;;;;;5111962;28;20055;-73
2022/03/22 15:19:42;;;;;;;14.55;8.93;;;19.10;47.60;;;;;;5112258;28;20051;-73
2022/03/22 15:22:46;;;;;;;16.65;8.35;;;19.50;47.70;;;;;;5107946;28;20042;-73
2022/03/22 15:25:51;;;;;;;16.08;8.63;;;19.60;47.30;;;;;;5102554;28;20035;-72
2022/03/22 15:28:55;;;;;;;13.57;9.15;;;19.60;47.70;;;;;;5106953;28;20106;-73
2022/03/22 15:32:00;;;;;;;13.40;8.55;;;19.40;47.50;;;;;;5112770;28;20504;-73
2022/03/22 15:35:05;;;;;;;13.85;8.35;;;19.50;47.20;;;;;;5107987;28;20502;-73
2022/03/22 15:38:10;;;;;;;13.23;8.18;;;19.50;47.80;;;;;;5099272;28;20034;-73
2022/03/22 15:41:15;;;;;;;11.45;8.43;;;19.40;47.20;;;;;;5103525;28;20038;-73
2022/03/22 15:44:19;;;;;;;13.07;9.00;;;19.40;47.30;;;;;;5107437;28;20039;-73
2022/03/22 15:47:23;;;;;;;15.13;8.70;;;19.30;47.20;;;;;;5091986;28;20031;-73
2022/03/22 15:50:27;;;;;;;15.00;9.02;;;19.20;47.70;;;;;;5105194;28;20047;-73
2022/03/22 15:53:32;;;;;;;17.25;9.63;;;18.90;47.20;;;;;;5103756;28;20042;-73
2022/03/22 15:56:36;;;;;;;16.23;9.38;;;18.70;47.50;;;;;;5108498;28;20354;-73
2022/03/22 15:59:40;;;;;;;16.98;9.73;;;18.10;47.10;;;;;;5112649;28;20394;-73
2022/03/22 16:02:45;;;;;;;12.50;8.98;;;17.30;48.20;;;;;;5103017;28;20422;-73
2022/03/22 16:05:49;;;;;;;19.65;9.80;;;17.20;48.70;;;;;;5106915;28;20047;-73
2022/03/22 16:08:54;;;;;;;16.60;9.63;;;16.70;50.10;;;;;;5105183;28;20046;-72
2022/03/22 16:11:59;;;;;;;13.23;9.15;;;17.00;50.50;;;;;;5108108;28;20046;-72
2022/03/22 16:15:09;;;;;;;16.38;9.10;;;17.30;50.30;;;;;;5110904;28;20390;-72
2022/03/22 16:18:13;;;;;;;16.58;9.77;;;17.40;49.80;;;;;;5111139;28;20384;-72
2022/03/22 16:21:17;;;;;;;11.75;8.85;;;17.40;49.40;;;;;;5113279;28;20047;-72
2022/03/22 16:24:22;;;;;;;16.05;9.70;;;17.40;49.50;;;;;;5112465;28;20051;-72
2022/03/22 16:27:28;;;;;;;15.63;9.90;;;17.30;49.50;;;;;;5111689;28;20042;-72
2022/03/22 16:30:32;;;;;;;12.32;9.05;;;17.30;49.90;;;;;;5111767;28;20050;-73
2022/03/22 16:36:58;;;;;;;12.63;8.52;;;17.00;50.20;;;;;;5111623;28;20034;-72
2022/03/22 16:40:02;;;;;;;12.52;8.80;;;16.90;49.20;;;;;;5112293;28;20520;-72
2022/03/22 16:43:06;;;;;;;13.77;9.13;;;16.80;49.50;;;;;;5111930;28;20493;-72
2022/03/22 16:46:12;;;;;;;16.65;9.68;;;16.70;49.50;;;;;;5111433;28;20501;-72
2022/03/22 16:49:18;;;;;;;16.15;9.90;;;16.60;49.40;;;;;;5111419;28;20054;-72
2022/03/22 16:52:22;;;;;;;19.55;10.20;;;16.30;49.90;;;;;;5112302;28;20038;-72
2022/03/22 16:55:26;;;;;;;13.45;9.50;;;16.10;51.00;;;;;;5111876;28;20402;-72
2022/03/22 16:58:32;;;;;;;16.10;9.63;;;16.00;51.80;;;;;;5111699;28;20055;-72